sensor_id;sensor_type;location;lat;lon;timestamp;temperature;humidity
20066;DHT22;10193;48.884;9.182;2023-05-08T00:01:05;17.90;72.90
20066;DHT22;10193;48.884;9.182;2023-05-08T00:03:32;17.90;72.90
20066;DHT22;10193;48.884;9.182;2023-05-08T00:05:59;17.90;73.60
20066;DHT22;10193;48.884;9.182;2023-05-08T00:08:28;17.90;73.00
20066;DHT22;10193;48.884;9.182;2023-05-08T00:10:57;17.90;73.00
20066;DHT22;10193;48.884;9.182;2023-05-08T00:13:23;17.90;73.10
20066;DHT22;10193;48.884;9.182;2023-05-08T00:15:50;17.80;73.10
20066;DHT22;10193;48.884;9.182;2023-05-08T00:18:18;17.90;73.30
20066;DHT22;10193;48.884;9.182;2023-05-08T00:20:45;17.90;73.20
20066;DHT22;10193;48.884;9.182;2023-05-08T00:23:12;17.90;73.10
20066;DHT22;10193;48.884;9.182;2023-05-08T00:25:39;17.90;73.30
20066;DHT22;10193;48.884;9.182;2023-05-08T00:28:06;17.80;73.30
20066;DHT22;10193;48.884;9.182;2023-05-08T00:30:32;17.90;73.50
20066;DHT22;10193;48.884;9.182;2023-05-08T00:32:59;17.80;73.40
20066;DHT22;10193;48.884;9.182;2023-05-08T00:35:27;17.80;73.50
20066;DHT22;10193;48.884;9.182;2023-05-08T00:37:54;17.90;73.70
20066;DHT22;10193;48.884;9.182;2023-05-08T00:40:20;17.80;73.60
20066;DHT22;10193;48.884;9.182;2023-05-08T00:42:47;17.80;73.60
20066;DHT22;10193;48.884;9.182;2023-05-08T00:45:13;17.80;73.60
20066;DHT22;10193;48.884;9.182;2023-05-08T00:47:40;17.80;73.60
20066;DHT22;10193;48.884;9.182;2023-05-08T00:50:08;17.90;73.90
20066;DHT22;10193;48.884;9.182;2023-05-08T00:52:37;17.80;73.80
20066;DHT22;10193;48.884;9.182;2023-05-08T00:55:05;17.80;73.90
20066;DHT22;10193;48.884;9.182;2023-05-08T00:57:32;17.90;74.00
20066;DHT22;10193;48.884;9.182;2023-05-08T01:00:02;17.90;74.00
20066;DHT22;10193;48.884;9.182;2023-05-08T01:02:30;17.80;73.80
20066;DHT22;10193;48.884;9.182;2023-05-08T01:04:57;17.80;73.90
20066;DHT22;10193;48.884;9.182;2023-05-08T01:07:24;17.80;73.90
20066;DHT22;10193;48.884;9.182;2023-05-08T01:09:52;17.80;73.80
20066;DHT22;10193;48.884;9.182;2023-05-08T01:12:23;17.80;73.70
20066;DHT22;10193;48.884;9.182;2023-05-08T01:14:59;17.80;73.80
20066;DHT22;10193;48.884;9.182;2023-05-08T01:17:39;17.80;74.10
20066;DHT22;10193;48.884;9.182;2023-05-08T01:20:19;17.80;74.20
20066;DHT22;10193;48.884;9.182;2023-05-08T01:23:06;17.70;74.30
20066;DHT22;10193;48.884;9.182;2023-05-08T01:25:55;17.70;74.40
20066;DHT22;10193;48.884;9.182;2023-05-08T01:28:44;17.70;74.50
20066;DHT22;10193;48.884;9.182;2023-05-08T01:31:23;17.70;74.40
20066;DHT22;10193;48.884;9.182;2023-05-08T01:33:55;17.70;74.10
20066;DHT22;10193;48.884;9.182;2023-05-08T01:36:33;17.70;74.10
20066;DHT22;10193;48.884;9.182;2023-05-08T01:39:09;17.70;74.30
20066;DHT22;10193;48.884;9.182;2023-05-08T01:41:40;17.70;74.30
20066;DHT22;10193;48.884;9.182;2023-05-08T01:44:12;17.70;74.20
20066;DHT22;10193;48.884;9.182;2023-05-08T01:46:43;17.70;74.30
20066;DHT22;10193;48.884;9.182;2023-05-08T01:49:14;17.70;74.20
20066;DHT22;10193;48.884;9.182;2023-05-08T01:51:45;17.70;74.30
20066;DHT22;10193;48.884;9.182;2023-05-08T01:54:15;17.70;74.40
20066;DHT22;10193;48.884;9.182;2023-05-08T01:56:47;17.70;74.60
20066;DHT22;10193;48.884;9.182;2023-05-08T01:59:17;17.70;74.70
20066;DHT22;10193;48.884;9.182;2023-05-08T02:01:47;17.70;74.80
20066;DHT22;10193;48.884;9.182;2023-05-08T02:04:17;17.70;74.80
20066;DHT22;10193;48.884;9.182;2023-05-08T02:06:44;17.70;74.90
20066;DHT22;10193;48.884;9.182;2023-05-08T02:09:12;17.70;74.80
20066;DHT22;10193;48.884;9.182;2023-05-08T02:11:40;17.70;74.90
20066;DHT22;10193;48.884;9.182;2023-05-08T02:14:08;17.70;74.90
20066;DHT22;10193;48.884;9.182;2023-05-08T02:16:38;17.70;74.80
20066;DHT22;10193;48.884;9.182;2023-05-08T02:19:07;17.80;74.90
20066;DHT22;10193;48.884;9.182;2023-05-08T02:21:38;17.80;74.80
20066;DHT22;10193;48.884;9.182;2023-05-08T02:24:05;17.80;74.80
20066;DHT22;10193;48.884;9.182;2023-05-08T02:26:33;17.70;75.50
20066;DHT22;10193;48.884;9.182;2023-05-08T02:29:01;17.80;74.80
20066;DHT22;10193;48.884;9.182;2023-05-08T02:31:29;17.70;74.60
20066;DHT22;10193;48.884;9.182;2023-05-08T02:33:56;17.70;74.70
20066;DHT22;10193;48.884;9.182;2023-05-08T02:36:25;17.70;74.70
20066;DHT22;10193;48.884;9.182;2023-05-08T02:38:56;17.70;74.80
20066;DHT22;10193;48.884;9.182;2023-05-08T02:41:26;17.70;75.00
20066;DHT22;10193;48.884;9.182;2023-05-08T02:43:54;17.70;75.00
20066;DHT22;10193;48.884;9.182;2023-05-08T02:46:26;17.70;75.10
20066;DHT22;10193;48.884;9.182;2023-05-08T02:48:57;17.60;75.20
20066;DHT22;10193;48.884;9.182;2023-05-08T02:51:31;17.60;75.30
20066;DHT22;10193;48.884;9.182;2023-05-08T02:54:07;17.60;75.40
20066;DHT22;10193;48.884;9.182;2023-05-08T02:56:37;17.60;75.60
20066;DHT22;10193;48.884;9.182;2023-05-08T02:59:13;17.60;75.60
20066;DHT22;10193;48.884;9.182;2023-05-08T03:01:47;17.60;75.90
20066;DHT22;10193;48.884;9.182;2023-05-08T03:04:21;17.60;75.70
20066;DHT22;10193;48.884;9.182;2023-05-08T03:06:51;17.60;75.80
20066;DHT22;10193;48.884;9.182;2023-05-08T03:09:23;17.60;75.70
20066;DHT22;10193;48.884;9.182;2023-05-08T03:11:56;17.60;75.80
20066;DHT22;10193;48.884;9.182;2023-05-08T03:14:26;17.60;75.80
20066;DHT22;10193;48.884;9.182;2023-05-08T03:16:54;17.60;75.80
20066;DHT22;10193;48.884;9.182;2023-05-08T03:19:26;17.60;75.80
20066;DHT22;10193;48.884;9.182;2023-05-08T03:21:55;17.60;75.80
20066;DHT22;10193;48.884;9.182;2023-05-08T03:24:25;17.60;75.80
20066;DHT22;10193;48.884;9.182;2023-05-08T03:26:55;17.60;75.80
20066;DHT22;10193;48.884;9.182;2023-05-08T03:29:22;17.60;75.70
20066;DHT22;10193;48.884;9.182;2023-05-08T03:31:50;17.60;75.70
20066;DHT22;10193;48.884;9.182;2023-05-08T03:34:18;17.60;75.70
20066;DHT22;10193;48.884;9.182;2023-05-08T03:36:46;17.60;75.70
20066;DHT22;10193;48.884;9.182;2023-05-08T03:39:13;17.60;75.80
20066;DHT22;10193;48.884;9.182;2023-05-08T03:41:41;17.60;75.90
20066;DHT22;10193;48.884;9.182;2023-05-08T03:44:08;17.50;76.00
20066;DHT22;10193;48.884;9.182;2023-05-08T03:46:36;17.50;76.10
20066;DHT22;10193;48.884;9.182;2023-05-08T03:49:03;17.50;76.00
20066;DHT22;10193;48.884;9.182;2023-05-08T03:51:31;17.50;76.10
20066;DHT22;10193;48.884;9.182;2023-05-08T03:53:58;17.50;76.20
20066;DHT22;10193;48.884;9.182;2023-05-08T03:56:25;17.50;76.30
20066;DHT22;10193;48.884;9.182;2023-05-08T03:59:00;17.50;76.30
20066;DHT22;10193;48.884;9.182;2023-05-08T04:01:35;17.50;76.50
20066;DHT22;10193;48.884;9.182;2023-05-08T04:04:07;17.50;76.50
20066;DHT22;10193;48.884;9.182;2023-05-08T04:06:39;17.50;76.40
20066;DHT22;10193;48.884;9.182;2023-05-08T04:09:16;17.50;76.50
20066;DHT22;10193;48.884;9.182;2023-05-08T04:11:50;17.50;76.60
20066;DHT22;10193;48.884;9.182;2023-05-08T04:14:20;17.50;76.60
20066;DHT22;10193;48.884;9.182;2023-05-08T04:16:51;17.50;77.40
20066;DHT22;10193;48.884;9.182;2023-05-08T04:19:23;17.50;76.50
20066;DHT22;10193;48.884;9.182;2023-05-08T04:21:52;17.50;76.60
20066;DHT22;10193;48.884;9.182;2023-05-08T04:24:21;17.50;76.60
20066;DHT22;10193;48.884;9.182;2023-05-08T04:26:48;17.50;76.60
20066;DHT22;10193;48.884;9.182;2023-05-08T04:29:16;17.50;76.70
20066;DHT22;10193;48.884;9.182;2023-05-08T04:31:44;17.50;76.80
20066;DHT22;10193;48.884;9.182;2023-05-08T04:34:12;17.50;76.90
20066;DHT22;10193;48.884;9.182;2023-05-08T04:36:39;17.60;77.00
20066;DHT22;10193;48.884;9.182;2023-05-08T04:39:06;17.60;77.00
20066;DHT22;10193;48.884;9.182;2023-05-08T04:41:32;17.60;77.00
20066;DHT22;10193;48.884;9.182;2023-05-08T04:44:00;17.60;77.00
20066;DHT22;10193;48.884;9.182;2023-05-08T04:46:26;17.60;77.00
20066;DHT22;10193;48.884;9.182;2023-05-08T04:48:54;17.60;77.00
20066;DHT22;10193;48.884;9.182;2023-05-08T04:51:21;17.60;77.10
20066;DHT22;10193;48.884;9.182;2023-05-08T04:53:48;17.70;77.20
20066;DHT22;10193;48.884;9.182;2023-05-08T04:56:15;17.60;77.20
20066;DHT22;10193;48.884;9.182;2023-05-08T04:58:41;17.70;77.30
20066;DHT22;10193;48.884;9.182;2023-05-08T05:01:08;17.70;78.10
20066;DHT22;10193;48.884;9.182;2023-05-08T05:03:35;17.70;77.40
20066;DHT22;10193;48.884;9.182;2023-05-08T05:06:03;17.70;77.40
20066;DHT22;10193;48.884;9.182;2023-05-08T05:08:30;17.70;77.30
20066;DHT22;10193;48.884;9.182;2023-05-08T05:10:56;17.80;77.40
20066;DHT22;10193;48.884;9.182;2023-05-08T05:13:23;17.80;77.40
20066;DHT22;10193;48.884;9.182;2023-05-08T05:15:50;17.80;77.40
20066;DHT22;10193;48.884;9.182;2023-05-08T05:18:18;17.80;77.30
20066;DHT22;10193;48.884;9.182;2023-05-08T05:20:45;17.80;77.30
20066;DHT22;10193;48.884;9.182;2023-05-08T05:23:13;17.90;77.40
20066;DHT22;10193;48.884;9.182;2023-05-08T05:25:40;17.90;77.30
20066;DHT22;10193;48.884;9.182;2023-05-08T05:28:06;17.90;77.20
20066;DHT22;10193;48.884;9.182;2023-05-08T05:30:33;17.90;77.10
20066;DHT22;10193;48.884;9.182;2023-05-08T05:33:00;17.90;77.10
20066;DHT22;10193;48.884;9.182;2023-05-08T05:35:27;18.00;77.20
20066;DHT22;10193;48.884;9.182;2023-05-08T05:37:53;17.90;77.20
20066;DHT22;10193;48.884;9.182;2023-05-08T05:40:21;18.00;77.30
20066;DHT22;10193;48.884;9.182;2023-05-08T05:42:48;18.00;77.20
20066;DHT22;10193;48.884;9.182;2023-05-08T05:45:15;18.00;77.20
20066;DHT22;10193;48.884;9.182;2023-05-08T05:47:46;18.00;77.00
20066;DHT22;10193;48.884;9.182;2023-05-08T05:50:15;18.00;77.10
20066;DHT22;10193;48.884;9.182;2023-05-08T05:52:42;18.00;77.00
20066;DHT22;10193;48.884;9.182;2023-05-08T05:55:09;18.10;77.10
20066;DHT22;10193;48.884;9.182;2023-05-08T05:57:37;18.10;77.10
20066;DHT22;10193;48.884;9.182;2023-05-08T06:00:05;18.10;77.20
20066;DHT22;10193;48.884;9.182;2023-05-08T06:02:32;18.10;77.30
20066;DHT22;10193;48.884;9.182;2023-05-08T06:04:59;18.10;77.40
20066;DHT22;10193;48.884;9.182;2023-05-08T06:07:25;18.10;77.50
20066;DHT22;10193;48.884;9.182;2023-05-08T06:09:52;18.10;77.40
20066;DHT22;10193;48.884;9.182;2023-05-08T06:12:19;18.10;77.20
20066;DHT22;10193;48.884;9.182;2023-05-08T06:14:47;18.20;77.20
20066;DHT22;10193;48.884;9.182;2023-05-08T06:17:16;18.20;77.00
20066;DHT22;10193;48.884;9.182;2023-05-08T06:19:43;18.20;76.90
20066;DHT22;10193;48.884;9.182;2023-05-08T06:22:10;18.20;76.90
20066;DHT22;10193;48.884;9.182;2023-05-08T06:24:36;18.20;76.90
20066;DHT22;10193;48.884;9.182;2023-05-08T06:27:03;18.20;76.90
20066;DHT22;10193;48.884;9.182;2023-05-08T06:29:30;18.20;77.00
20066;DHT22;10193;48.884;9.182;2023-05-08T06:31:58;18.20;77.00
20066;DHT22;10193;48.884;9.182;2023-05-08T06:34:24;18.10;76.90
20066;DHT22;10193;48.884;9.182;2023-05-08T06:36:51;18.20;77.00
20066;DHT22;10193;48.884;9.182;2023-05-08T06:39:18;18.20;77.00
20066;DHT22;10193;48.884;9.182;2023-05-08T06:41:46;18.20;77.10
20066;DHT22;10193;48.884;9.182;2023-05-08T06:44:12;18.20;77.10
20066;DHT22;10193;48.884;9.182;2023-05-08T06:46:39;18.20;77.10
20066;DHT22;10193;48.884;9.182;2023-05-08T06:49:07;18.20;77.00
20066;DHT22;10193;48.884;9.182;2023-05-08T06:51:34;18.20;77.00
20066;DHT22;10193;48.884;9.182;2023-05-08T06:54:02;18.20;77.00
20066;DHT22;10193;48.884;9.182;2023-05-08T06:56:32;18.20;77.10
20066;DHT22;10193;48.884;9.182;2023-05-08T06:58:58;18.20;77.20
20066;DHT22;10193;48.884;9.182;2023-05-08T07:01:25;18.20;77.20
20066;DHT22;10193;48.884;9.182;2023-05-08T07:03:52;18.20;77.20
20066;DHT22;10193;48.884;9.182;2023-05-08T07:06:20;18.20;77.30
20066;DHT22;10193;48.884;9.182;2023-05-08T07:08:46;18.20;77.40
20066;DHT22;10193;48.884;9.182;2023-05-08T07:11:13;18.20;77.40
20066;DHT22;10193;48.884;9.182;2023-05-08T07:13:40;18.20;77.40
20066;DHT22;10193;48.884;9.182;2023-05-08T07:16:08;18.30;77.60
20066;DHT22;10193;48.884;9.182;2023-05-08T07:18:35;18.30;77.50
20066;DHT22;10193;48.884;9.182;2023-05-08T07:21:02;18.30;77.50
20066;DHT22;10193;48.884;9.182;2023-05-08T07:23:30;18.30;77.50
20066;DHT22;10193;48.884;9.182;2023-05-08T07:25:57;18.30;77.50
20066;DHT22;10193;48.884;9.182;2023-05-08T07:28:24;18.40;77.70
20066;DHT22;10193;48.884;9.182;2023-05-08T07:30:50;18.40;77.70
20066;DHT22;10193;48.884;9.182;2023-05-08T07:33:18;18.40;77.60
20066;DHT22;10193;48.884;9.182;2023-05-08T07:35:45;18.40;77.60
20066;DHT22;10193;48.884;9.182;2023-05-08T07:38:11;18.40;77.50
20066;DHT22;10193;48.884;9.182;2023-05-08T07:40:39;18.40;77.40
20066;DHT22;10193;48.884;9.182;2023-05-08T07:43:06;18.50;77.50
20066;DHT22;10193;48.884;9.182;2023-05-08T07:45:32;18.50;77.50
20066;DHT22;10193;48.884;9.182;2023-05-08T07:48:01;18.50;77.60
20066;DHT22;10193;48.884;9.182;2023-05-08T07:50:27;18.60;77.80
20066;DHT22;10193;48.884;9.182;2023-05-08T07:52:54;18.60;78.10
20066;DHT22;10193;48.884;9.182;2023-05-08T07:55:21;18.60;78.40
20066;DHT22;10193;48.884;9.182;2023-05-08T07:57:49;18.70;78.60
20066;DHT22;10193;48.884;9.182;2023-05-08T08:00:16;18.80;78.80
20066;DHT22;10193;48.884;9.182;2023-05-08T08:02:43;18.90;78.80
20066;DHT22;10193;48.884;9.182;2023-05-08T08:05:10;18.90;78.70
20066;DHT22;10193;48.884;9.182;2023-05-08T08:07:37;19.00;78.80
20066;DHT22;10193;48.884;9.182;2023-05-08T08:10:05;19.10;79.00
20066;DHT22;10193;48.884;9.182;2023-05-08T08:12:32;19.20;79.40
20066;DHT22;10193;48.884;9.182;2023-05-08T08:15:00;19.30;80.60
20066;DHT22;10193;48.884;9.182;2023-05-08T08:17:26;19.40;80.30
20066;DHT22;10193;48.884;9.182;2023-05-08T08:19:53;19.60;80.40
20066;DHT22;10193;48.884;9.182;2023-05-08T08:22:20;19.70;80.30
20066;DHT22;10193;48.884;9.182;2023-05-08T08:24:47;19.90;80.10
20066;DHT22;10193;48.884;9.182;2023-05-08T08:27:13;20.00;79.80
20066;DHT22;10193;48.884;9.182;2023-05-08T08:29:40;20.10;79.50
20066;DHT22;10193;48.884;9.182;2023-05-08T08:32:08;20.30;79.10
20066;DHT22;10193;48.884;9.182;2023-05-08T08:34:35;20.40;78.70
20066;DHT22;10193;48.884;9.182;2023-05-08T08:37:03;20.50;78.40
20066;DHT22;10193;48.884;9.182;2023-05-08T08:39:31;20.50;77.80
20066;DHT22;10193;48.884;9.182;2023-05-08T08:41:58;20.60;77.20
20066;DHT22;10193;48.884;9.182;2023-05-08T08:44:25;20.60;76.70
20066;DHT22;10193;48.884;9.182;2023-05-08T08:46:52;20.60;76.20
20066;DHT22;10193;48.884;9.182;2023-05-08T08:49:24;20.70;76.00
20066;DHT22;10193;48.884;9.182;2023-05-08T08:51:57;20.60;75.60
20066;DHT22;10193;48.884;9.182;2023-05-08T08:54:28;20.60;75.50
20066;DHT22;10193;48.884;9.182;2023-05-08T08:56:56;20.60;75.40
20066;DHT22;10193;48.884;9.182;2023-05-08T08:59:26;20.60;75.60
20066;DHT22;10193;48.884;9.182;2023-05-08T09:01:55;20.60;75.50
20066;DHT22;10193;48.884;9.182;2023-05-08T09:04:25;20.60;75.50
20066;DHT22;10193;48.884;9.182;2023-05-08T09:06:54;20.60;75.60
20066;DHT22;10193;48.884;9.182;2023-05-08T09:09:22;20.70;75.70
20066;DHT22;10193;48.884;9.182;2023-05-08T09:11:51;20.70;75.70
20066;DHT22;10193;48.884;9.182;2023-05-08T09:14:18;20.70;75.40
20066;DHT22;10193;48.884;9.182;2023-05-08T09:16:44;20.70;75.20
20066;DHT22;10193;48.884;9.182;2023-05-08T09:19:13;20.80;75.10
20066;DHT22;10193;48.884;9.182;2023-05-08T09:21:41;20.80;75.00
20066;DHT22;10193;48.884;9.182;2023-05-08T09:24:08;20.80;74.80
20066;DHT22;10193;48.884;9.182;2023-05-08T09:26:36;20.90;74.90
20066;DHT22;10193;48.884;9.182;2023-05-08T09:29:13;20.90;74.90
20066;DHT22;10193;48.884;9.182;2023-05-08T09:31:42;20.90;74.70
20066;DHT22;10193;48.884;9.182;2023-05-08T09:34:10;21.00;75.10
20066;DHT22;10193;48.884;9.182;2023-05-08T09:36:37;21.00;74.90
20066;DHT22;10193;48.884;9.182;2023-05-08T09:39:10;21.10;74.70
20066;DHT22;10193;48.884;9.182;2023-05-08T09:41:37;21.10;74.20
20066;DHT22;10193;48.884;9.182;2023-05-08T09:44:06;21.20;74.30
20066;DHT22;10193;48.884;9.182;2023-05-08T09:46:33;21.20;74.00
20066;DHT22;10193;48.884;9.182;2023-05-08T09:49:01;21.20;74.00
20066;DHT22;10193;48.884;9.182;2023-05-08T09:51:29;21.20;73.80
20066;DHT22;10193;48.884;9.182;2023-05-08T09:53:57;21.30;73.70
20066;DHT22;10193;48.884;9.182;2023-05-08T09:56:33;21.30;73.30
20066;DHT22;10193;48.884;9.182;2023-05-08T09:59:01;21.30;72.80
20066;DHT22;10193;48.884;9.182;2023-05-08T10:01:30;21.30;73.00
20066;DHT22;10193;48.884;9.182;2023-05-08T10:03:57;21.30;73.00
20066;DHT22;10193;48.884;9.182;2023-05-08T10:06:24;21.20;72.80
20066;DHT22;10193;48.884;9.182;2023-05-08T10:09:12;21.20;72.80
20066;DHT22;10193;48.884;9.182;2023-05-08T10:11:41;21.10;72.50
20066;DHT22;10193;48.884;9.182;2023-05-08T10:14:16;21.10;72.40
20066;DHT22;10193;48.884;9.182;2023-05-08T10:16:45;21.10;72.60
20066;DHT22;10193;48.884;9.182;2023-05-08T10:19:14;21.00;72.70
20066;DHT22;10193;48.884;9.182;2023-05-08T10:21:43;21.00;73.20
20066;DHT22;10193;48.884;9.182;2023-05-08T10:24:14;21.00;73.60
20066;DHT22;10193;48.884;9.182;2023-05-08T10:26:47;21.00;73.70
20066;DHT22;10193;48.884;9.182;2023-05-08T10:29:22;21.00;73.80
20066;DHT22;10193;48.884;9.182;2023-05-08T10:31:53;21.10;74.00
20066;DHT22;10193;48.884;9.182;2023-05-08T10:34:21;21.10;74.00
20066;DHT22;10193;48.884;9.182;2023-05-08T10:36:49;21.10;73.90
20066;DHT22;10193;48.884;9.182;2023-05-08T10:39:17;21.10;73.90
20066;DHT22;10193;48.884;9.182;2023-05-08T10:41:47;21.10;73.60
20066;DHT22;10193;48.884;9.182;2023-05-08T10:44:14;21.10;73.40
20066;DHT22;10193;48.884;9.182;2023-05-08T10:46:48;21.10;73.40
20066;DHT22;10193;48.884;9.182;2023-05-08T10:49:22;21.10;73.10
20066;DHT22;10193;48.884;9.182;2023-05-08T10:51:57;21.10;72.80
20066;DHT22;10193;48.884;9.182;2023-05-08T10:54:37;21.10;72.70
20066;DHT22;10193;48.884;9.182;2023-05-08T10:57:10;21.10;72.90
20066;DHT22;10193;48.884;9.182;2023-05-08T10:59:37;21.10;73.10
20066;DHT22;10193;48.884;9.182;2023-05-08T11:02:04;21.10;73.20
20066;DHT22;10193;48.884;9.182;2023-05-08T11:04:32;21.10;73.50
20066;DHT22;10193;48.884;9.182;2023-05-08T11:06:59;21.20;74.10
20066;DHT22;10193;48.884;9.182;2023-05-08T11:09:27;21.30;74.90
20066;DHT22;10193;48.884;9.182;2023-05-08T11:12:07;21.40;75.40
20066;DHT22;10193;48.884;9.182;2023-05-08T11:14:38;21.50;75.10
20066;DHT22;10193;48.884;9.182;2023-05-08T11:17:08;21.60;75.70
20066;DHT22;10193;48.884;9.182;2023-05-08T11:19:36;21.80;75.70
20066;DHT22;10193;48.884;9.182;2023-05-08T11:22:23;21.90;75.20
20066;DHT22;10193;48.884;9.182;2023-05-08T11:25:08;22.10;74.40
20066;DHT22;10193;48.884;9.182;2023-05-08T11:30:26;22.40;74.50
20066;DHT22;10193;48.884;9.182;2023-05-08T11:33:15;22.50;74.30
20066;DHT22;10193;48.884;9.182;2023-05-08T11:35:48;22.60;73.30
20066;DHT22;10193;48.884;9.182;2023-05-08T11:38:17;22.80;74.30
20066;DHT22;10193;48.884;9.182;2023-05-08T11:40:48;23.00;74.50
20066;DHT22;10193;48.884;9.182;2023-05-08T11:43:24;23.10;74.30
20066;DHT22;10193;48.884;9.182;2023-05-08T11:45:53;23.30;73.70
20066;DHT22;10193;48.884;9.182;2023-05-08T11:48:20;23.50;74.00
20066;DHT22;10193;48.884;9.182;2023-05-08T11:50:47;23.60;73.10
20066;DHT22;10193;48.884;9.182;2023-05-08T11:53:14;23.80;72.70
20066;DHT22;10193;48.884;9.182;2023-05-08T11:55:41;23.90;72.30
20066;DHT22;10193;48.884;9.182;2023-05-08T11:58:11;24.00;71.80
20066;DHT22;10193;48.884;9.182;2023-05-08T12:00:39;24.10;71.40
20066;DHT22;10193;48.884;9.182;2023-05-08T12:03:11;24.30;71.10
20066;DHT22;10193;48.884;9.182;2023-05-08T12:05:38;24.30;70.40
20066;DHT22;10193;48.884;9.182;2023-05-08T12:08:05;24.40;69.50
20066;DHT22;10193;48.884;9.182;2023-05-08T12:10:32;24.40;68.60
20066;DHT22;10193;48.884;9.182;2023-05-08T12:13:14;24.30;67.80
20066;DHT22;10193;48.884;9.182;2023-05-08T12:15:41;24.20;66.90
20066;DHT22;10193;48.884;9.182;2023-05-08T12:18:09;24.10;66.90
20066;DHT22;10193;48.884;9.182;2023-05-08T12:20:36;23.90;66.70
20066;DHT22;10193;48.884;9.182;2023-05-08T12:23:02;23.70;66.60
20066;DHT22;10193;48.884;9.182;2023-05-08T12:25:29;23.60;66.20
20066;DHT22;10193;48.884;9.182;2023-05-08T12:27:56;23.40;66.00
20066;DHT22;10193;48.884;9.182;2023-05-08T12:30:24;23.10;65.70
20066;DHT22;10193;48.884;9.182;2023-05-08T12:32:51;22.90;65.70
20066;DHT22;10193;48.884;9.182;2023-05-08T12:35:19;22.70;65.60
20066;DHT22;10193;48.884;9.182;2023-05-08T12:37:46;22.50;65.70
20066;DHT22;10193;48.884;9.182;2023-05-08T12:40:24;22.20;65.80
20066;DHT22;10193;48.884;9.182;2023-05-08T12:42:51;22.00;66.20
20066;DHT22;10193;48.884;9.182;2023-05-08T12:45:18;21.90;66.20
20066;DHT22;10193;48.884;9.182;2023-05-08T12:47:46;21.60;66.10
20066;DHT22;10193;48.884;9.182;2023-05-08T12:50:14;21.30;65.80
20066;DHT22;10193;48.884;9.182;2023-05-08T12:52:43;21.10;66.10
20066;DHT22;10193;48.884;9.182;2023-05-08T12:55:23;20.80;66.50
20066;DHT22;10193;48.884;9.182;2023-05-08T12:57:58;20.50;68.20
20066;DHT22;10193;48.884;9.182;2023-05-08T13:00:25;20.10;68.40
20066;DHT22;10193;48.884;9.182;2023-05-08T13:02:59;19.90;68.90
20066;DHT22;10193;48.884;9.182;2023-05-08T13:05:25;19.60;70.30
20066;DHT22;10193;48.884;9.182;2023-05-08T13:07:58;19.40;71.30
20066;DHT22;10193;48.884;9.182;2023-05-08T13:10:24;19.20;73.20
20066;DHT22;10193;48.884;9.182;2023-05-08T13:12:51;19.10;74.00
20066;DHT22;10193;48.884;9.182;2023-05-08T13:15:18;19.00;74.90
20066;DHT22;10193;48.884;9.182;2023-05-08T13:17:45;18.90;76.00
20066;DHT22;10193;48.884;9.182;2023-05-08T13:20:12;18.80;77.00
20066;DHT22;10193;48.884;9.182;2023-05-08T13:22:38;18.70;77.80
20066;DHT22;10193;48.884;9.182;2023-05-08T13:25:08;18.70;78.60
20066;DHT22;10193;48.884;9.182;2023-05-08T13:27:34;18.70;79.20
20066;DHT22;10193;48.884;9.182;2023-05-08T13:30:01;18.70;80.00
20066;DHT22;10193;48.884;9.182;2023-05-08T13:32:28;18.70;80.40
20066;DHT22;10193;48.884;9.182;2023-05-08T13:34:54;18.70;80.40
20066;DHT22;10193;48.884;9.182;2023-05-08T13:37:21;18.60;80.60
20066;DHT22;10193;48.884;9.182;2023-05-08T13:39:48;18.60;81.50
20066;DHT22;10193;48.884;9.182;2023-05-08T13:42:16;18.60;82.40
20066;DHT22;10193;48.884;9.182;2023-05-08T13:44:42;18.60;83.40
20066;DHT22;10193;48.884;9.182;2023-05-08T13:47:09;18.60;84.30
20066;DHT22;10193;48.884;9.182;2023-05-08T13:49:36;18.60;85.20
20066;DHT22;10193;48.884;9.182;2023-05-08T13:52:03;18.70;86.00
20066;DHT22;10193;48.884;9.182;2023-05-08T13:54:29;18.70;86.10
20066;DHT22;10193;48.884;9.182;2023-05-08T13:56:56;18.70;86.60
20066;DHT22;10193;48.884;9.182;2023-05-08T13:59:24;18.80;87.10
20066;DHT22;10193;48.884;9.182;2023-05-08T14:01:51;18.80;87.60
20066;DHT22;10193;48.884;9.182;2023-05-08T14:04:17;18.80;87.60
20066;DHT22;10193;48.884;9.182;2023-05-08T14:06:44;18.80;87.60
20066;DHT22;10193;48.884;9.182;2023-05-08T14:09:11;18.90;87.90
20066;DHT22;10193;48.884;9.182;2023-05-08T14:11:38;18.90;88.10
20066;DHT22;10193;48.884;9.182;2023-05-08T14:14:04;18.80;88.30
20066;DHT22;10193;48.884;9.182;2023-05-08T14:16:32;18.90;89.10
20066;DHT22;10193;48.884;9.182;2023-05-08T14:18:59;18.90;89.90
20066;DHT22;10193;48.884;9.182;2023-05-08T14:21:26;18.90;90.40
20066;DHT22;10193;48.884;9.182;2023-05-08T14:23:53;19.00;90.80
20066;DHT22;10193;48.884;9.182;2023-05-08T14:26:19;19.00;91.10
20066;DHT22;10193;48.884;9.182;2023-05-08T14:28:46;19.10;91.20
20066;DHT22;10193;48.884;9.182;2023-05-08T14:31:13;19.20;90.80
20066;DHT22;10193;48.884;9.182;2023-05-08T14:33:41;19.20;90.70
20066;DHT22;10193;48.884;9.182;2023-05-08T14:36:08;19.20;90.40
20066;DHT22;10193;48.884;9.182;2023-05-08T14:38:35;19.20;90.30
20066;DHT22;10193;48.884;9.182;2023-05-08T14:41:01;19.20;90.30
20066;DHT22;10193;48.884;9.182;2023-05-08T14:43:28;19.10;90.20
20066;DHT22;10193;48.884;9.182;2023-05-08T14:45:55;19.10;90.40
20066;DHT22;10193;48.884;9.182;2023-05-08T14:48:21;19.10;90.60
20066;DHT22;10193;48.884;9.182;2023-05-08T14:50:49;19.10;90.60
20066;DHT22;10193;48.884;9.182;2023-05-08T14:53:16;19.10;90.60
20066;DHT22;10193;48.884;9.182;2023-05-08T14:55:43;19.00;90.50
20066;DHT22;10193;48.884;9.182;2023-05-08T14:58:09;19.00;90.60
20066;DHT22;10193;48.884;9.182;2023-05-08T15:00:36;19.00;90.60
20066;DHT22;10193;48.884;9.182;2023-05-08T15:03:03;18.90;90.70
20066;DHT22;10193;48.884;9.182;2023-05-08T15:05:30;18.90;91.00
20066;DHT22;10193;48.884;9.182;2023-05-08T15:07:58;18.90;91.30
20066;DHT22;10193;48.884;9.182;2023-05-08T15:10:27;18.90;91.30
20066;DHT22;10193;48.884;9.182;2023-05-08T15:12:53;18.90;91.30
20066;DHT22;10193;48.884;9.182;2023-05-08T15:15:20;19.00;91.50
20066;DHT22;10193;48.884;9.182;2023-05-08T15:17:47;18.90;91.40
20066;DHT22;10193;48.884;9.182;2023-05-08T15:20:13;18.90;91.40
20066;DHT22;10193;48.884;9.182;2023-05-08T15:22:40;18.90;91.20
20066;DHT22;10193;48.884;9.182;2023-05-08T15:25:08;19.00;91.30
20066;DHT22;10193;48.884;9.182;2023-05-08T15:27:36;18.90;91.40
20066;DHT22;10193;48.884;9.182;2023-05-08T15:30:04;18.90;91.40
20066;DHT22;10193;48.884;9.182;2023-05-08T15:32:30;18.90;91.50
20066;DHT22;10193;48.884;9.182;2023-05-08T15:34:57;18.90;91.70
20066;DHT22;10193;48.884;9.182;2023-05-08T15:37:24;18.90;92.00
20066;DHT22;10193;48.884;9.182;2023-05-08T15:39:50;18.90;92.10
20066;DHT22;10193;48.884;9.182;2023-05-08T15:42:18;18.90;92.10